createdAt,value
2022-12-14T00:00:01.624Z,4.18
2022-12-14T00:02:32.237Z,4.30
2022-12-14T00:05:00.767Z,4.75
2022-12-14T00:07:31.983Z,4.35
2022-12-14T00:10:00.560Z,4.50
2022-12-14T00:12:29.002Z,4.95
2022-12-14T00:14:57.518Z,4.82
2022-12-14T00:17:26.293Z,4.95
2022-12-14T00:19:55.099Z,5.63
2022-12-14T00:22:23.559Z,5.22
2022-12-14T00:24:53.494Z,4.80
2022-12-14T00:27:21.950Z,4.15
2022-12-14T00:29:50.554Z,4.95
2022-12-14T00:32:19.217Z,4.97
2022-12-14T00:34:47.692Z,4.78
2022-12-14T00:37:16.158Z,4.95
2022-12-14T00:39:44.616Z,4.82
2022-12-14T00:42:14.596Z,5.30
2022-12-14T00:44:42.965Z,5.13
2022-12-14T00:47:11.821Z,5.78
2022-12-14T00:49:40.283Z,6.03
2022-12-14T00:52:08.725Z,5.82
2022-12-14T00:54:37.162Z,5.40
2022-12-14T00:57:05.682Z,5.10
2022-12-14T00:59:35.567Z,4.82
2022-12-14T01:02:04.493Z,5.00
2022-12-14T01:04:33.025Z,4.82
2022-12-14T01:07:01.569Z,4.90
2022-12-14T01:09:30.206Z,5.72
2022-12-14T01:11:58.645Z,5.45
2022-12-14T01:14:27.111Z,5.20
2022-12-14T01:16:56.982Z,4.55
2022-12-14T01:19:25.483Z,5.13
2022-12-14T01:21:54.669Z,5.13
2022-12-14T01:24:23.126Z,5.13
2022-12-14T01:26:51.941Z,4.82
2022-12-14T01:29:20.423Z,5.45
2022-12-14T01:31:49.664Z,4.80
2022-12-14T01:34:19.599Z,5.47
2022-12-14T01:36:48.047Z,5.53
2022-12-14T01:39:17.723Z,5.43
2022-12-14T01:41:50.273Z,5.47
2022-12-14T01:44:54.411Z,5.85
2022-12-14T01:47:39.683Z,4.93
2022-12-14T01:50:17.809Z,5.28
2022-12-14T01:52:49.245Z,5.20
2022-12-14T01:55:22.961Z,5.50
2022-12-14T01:57:56.178Z,5.20
2022-12-14T02:00:24.785Z,5.35
2022-12-14T02:02:58.673Z,5.47
2022-12-14T02:07:58.233Z,5.10
2022-12-14T02:10:29.391Z,5.25
2022-12-14T02:13:04.715Z,5.80
2022-12-14T02:15:35.115Z,5.45
2022-12-14T02:18:07.566Z,5.65
2022-12-14T02:20:50.749Z,5.82
2022-12-14T02:23:35.910Z,5.15
2022-12-14T02:26:31.759Z,5.78
2022-12-14T02:29:29.847Z,7.47
2022-12-14T02:32:12.257Z,6.35
2022-12-14T02:34:57.234Z,6.82
2022-12-14T02:37:35.310Z,6.75
2022-12-14T02:40:15.999Z,5.10
2022-12-14T02:42:55.902Z,4.97
2022-12-14T02:45:28.453Z,4.95
2022-12-14T02:48:03.285Z,5.53
2022-12-14T02:50:42.383Z,6.38
2022-12-14T02:53:21.744Z,6.22
2022-12-14T02:55:53.843Z,5.78
2022-12-14T02:58:26.015Z,4.80
2022-12-14T03:00:57.146Z,6.43
2022-12-14T03:03:27.621Z,7.82
2022-12-14T03:05:59.226Z,6.50
2022-12-14T03:08:29.161Z,5.55
2022-12-14T03:11:01.427Z,5.03
2022-12-14T03:13:35.351Z,4.97
2022-12-14T03:16:10.254Z,5.85
2022-12-14T03:18:48.653Z,5.57
2022-12-14T03:21:20.590Z,6.03
2022-12-14T03:23:51.296Z,6.05
2022-12-14T03:26:27.322Z,5.47
2022-12-14T03:29:01.091Z,5.72
2022-12-14T03:31:37.226Z,6.93
2022-12-14T03:34:13.407Z,7.00
2022-12-14T03:36:50.205Z,5.95
2022-12-14T03:39:27.126Z,5.95
2022-12-14T03:42:01.884Z,5.80
2022-12-14T03:44:49.379Z,6.80
2022-12-14T03:47:39.283Z,5.40
2022-12-14T03:50:17.851Z,5.25
2022-12-14T03:52:55.060Z,6.15
2022-12-14T03:55:28.643Z,6.03
2022-12-14T03:58:11.917Z,5.47
2022-12-14T04:00:52.188Z,5.70
2022-12-14T04:03:29.360Z,5.68
2022-12-14T04:06:04.213Z,5.72
2022-12-14T04:08:39.650Z,5.85
2022-12-14T04:11:28.490Z,5.88
2022-12-14T04:14:19.918Z,5.55
2022-12-14T04:17:09.327Z,5.93
2022-12-14T04:19:43.873Z,5.72
2022-12-14T04:22:17.612Z,5.90
2022-12-14T04:25:08.029Z,6.60
2022-12-14T04:27:40.955Z,6.68
2022-12-14T04:30:10.835Z,6.65
2022-12-14T04:32:43.913Z,6.53
2022-12-14T04:35:17.788Z,6.78
2022-12-14T04:37:52.379Z,25.98
2022-12-14T04:40:24.894Z,5.97
2022-12-14T04:42:56.974Z,8.15
2022-12-14T04:45:28.904Z,7.13
2022-12-14T04:48:11.707Z,6.57
2022-12-14T04:50:46.782Z,6.35
2022-12-14T04:53:19.775Z,6.63
2022-12-14T04:55:53.769Z,6.50
2022-12-14T04:58:26.853Z,6.97
2022-12-14T05:01:12.779Z,6.30
2022-12-14T05:03:52.544Z,6.95
2022-12-14T05:06:26.351Z,6.88
2022-12-14T05:09:20.098Z,6.68
2022-12-14T05:11:55.099Z,6.50
2022-12-14T05:14:29.911Z,6.68
2022-12-14T05:17:03.441Z,6.85
2022-12-14T05:19:35.575Z,7.25
2022-12-14T05:22:07.464Z,7.45
2022-12-14T05:24:37.538Z,7.15
2022-12-14T05:27:06.477Z,7.18
2022-12-14T05:29:35.234Z,7.28
2022-12-14T05:32:04.730Z,6.85
2022-12-14T05:34:34.378Z,7.13
2022-12-14T05:37:02.968Z,6.40
2022-12-14T05:39:31.473Z,7.43
2022-12-14T05:42:01.499Z,6.88
2022-12-14T05:44:30.030Z,7.65
2022-12-14T05:46:58.528Z,6.03
2022-12-14T05:49:27.267Z,7.18
2022-12-14T05:51:55.838Z,7.63
2022-12-14T05:54:24.380Z,7.20
2022-12-14T05:56:52.974Z,7.25
2022-12-14T05:59:25.435Z,6.63
2022-12-14T06:01:54.112Z,6.38
2022-12-14T06:04:22.676Z,6.85
2022-12-14T06:06:51.750Z,12.40
2022-12-14T06:09:21.050Z,12.15
2022-12-14T06:11:50.189Z,10.93
2022-12-14T06:14:19.049Z,7.43
2022-12-14T06:16:49.211Z,7.78
2022-12-14T06:19:17.700Z,6.60
2022-12-14T06:21:46.154Z,7.18
2022-12-14T06:24:15.570Z,7.18
2022-12-14T06:26:44.116Z,6.60
2022-12-14T06:29:18.027Z,8.10
2022-12-14T06:34:24.829Z,6.43
2022-12-14T06:36:56.686Z,6.70
2022-12-14T06:39:25.118Z,7.28
2022-12-14T06:41:53.633Z,7.57
2022-12-14T06:44:22.170Z,7.32
2022-12-14T06:46:50.791Z,7.78
2022-12-14T06:49:20.987Z,7.53
2022-12-14T06:51:49.987Z,8.43
2022-12-14T06:54:19.668Z,9.07
2022-12-14T06:56:49.198Z,10.13
2022-12-14T06:59:18.212Z,12.48
2022-12-14T07:01:49.791Z,10.30
2022-12-14T07:04:21.729Z,8.18
2022-12-14T07:06:50.699Z,8.85
2022-12-14T07:09:19.755Z,8.95
2022-12-14T07:11:54.024Z,8.38
2022-12-14T07:14:22.902Z,8.85
2022-12-14T07:16:52.730Z,8.90
2022-12-14T07:19:25.844Z,8.75
2022-12-14T07:21:55.108Z,8.30
2022-12-14T07:24:24.912Z,8.45
2022-12-14T07:26:53.916Z,7.15
2022-12-14T07:29:22.635Z,7.32
2022-12-14T07:31:51.589Z,8.00
2022-12-14T07:34:20.063Z,7.55
2022-12-14T07:36:52.504Z,8.27
2022-12-14T07:39:22.451Z,6.60
2022-12-14T07:41:52.290Z,7.35
2022-12-14T07:44:23.523Z,6.88
2022-12-14T07:46:52.586Z,7.05
2022-12-14T07:49:21.174Z,6.82
2022-12-14T07:51:49.697Z,7.22
2022-12-14T07:54:19.614Z,7.82
2022-12-14T07:56:48.262Z,7.03
2022-12-14T07:59:18.601Z,7.53
2022-12-14T08:01:47.194Z,7.93
2022-12-14T08:04:18.614Z,7.63
2022-12-14T08:06:48.446Z,7.28
2022-12-14T08:09:17.791Z,6.97
2022-12-14T08:11:47.970Z,7.10
2022-12-14T08:14:18.929Z,7.20
2022-12-14T08:16:49.251Z,7.82
2022-12-14T08:19:18.617Z,9.35
2022-12-14T08:21:47.422Z,9.93
2022-12-14T08:24:17.001Z,13.60
2022-12-14T08:26:47.287Z,11.90
2022-12-14T08:29:20.034Z,10.68
2022-12-14T08:31:48.667Z,9.95
2022-12-14T08:34:22.859Z,9.73
2022-12-14T08:36:51.675Z,8.52
2022-12-14T08:39:20.694Z,9.75
2022-12-14T08:41:49.383Z,9.27
2022-12-14T08:44:19.456Z,9.27
2022-12-14T08:46:48.301Z,8.88
2022-12-14T08:49:17.424Z,9.32
2022-12-14T08:51:45.950Z,9.65
2022-12-14T08:54:14.499Z,9.10
2022-12-14T08:56:42.961Z,8.98
2022-12-14T08:59:29.992Z,10.27
2022-12-14T09:02:01.365Z,9.80
2022-12-14T09:04:30.269Z,10.05
2022-12-14T09:06:58.885Z,9.70
2022-12-14T09:09:27.463Z,10.95
2022-12-14T09:11:55.983Z,10.77
2022-12-14T09:14:24.551Z,10.35
2022-12-14T09:16:53.024Z,10.02
2022-12-14T09:19:22.993Z,10.18
2022-12-14T09:21:51.527Z,8.40
2022-12-14T09:24:20.303Z,8.70
2022-12-14T09:26:48.805Z,8.57
2022-12-14T09:29:18.755Z,8.80
2022-12-14T09:31:47.688Z,8.50
2022-12-14T09:34:16.498Z,8.70
2022-12-14T09:36:47.089Z,8.80
2022-12-14T09:39:16.495Z,8.52
2022-12-14T09:42:00.953Z,8.35
2022-12-14T09:44:45.068Z,8.50
2022-12-14T09:47:19.376Z,9.32
2022-12-14T09:49:52.768Z,9.20
2022-12-14T09:52:31.153Z,9.88
2022-12-14T09:55:01.233Z,9.38
2022-12-14T09:57:36.163Z,9.45
2022-12-14T10:00:05.860Z,8.35
2022-12-14T10:02:47.738Z,8.88
2022-12-14T10:05:35.034Z,7.55
2022-12-14T10:08:12.446Z,8.05
2022-12-14T10:10:52.529Z,8.70
2022-12-14T10:13:33.797Z,9.30
2022-12-14T10:16:16.255Z,8.25
2022-12-14T10:19:03.904Z,8.30
2022-12-14T10:21:44.110Z,8.57
2022-12-14T10:24:21.084Z,7.85
2022-12-14T10:26:52.472Z,8.40
2022-12-14T10:29:33.600Z,7.05
2022-12-14T10:32:15.896Z,6.85
2022-12-14T10:34:44.891Z,7.30
2022-12-14T10:37:24.438Z,7.88
2022-12-14T10:40:23.314Z,7.03
2022-12-14T10:43:29.994Z,7.60
2022-12-14T10:46:13.978Z,6.72
2022-12-14T10:48:52.013Z,7.20
2022-12-14T10:51:24.651Z,6.95
2022-12-14T10:53:56.899Z,7.00
2022-12-14T10:56:31.615Z,7.63
2022-12-14T10:59:39.554Z,7.15
2022-12-14T11:02:17.265Z,6.55
2022-12-14T11:04:50.979Z,5.82
2022-12-14T11:07:22.048Z,6.45
2022-12-14T11:09:50.872Z,6.32
2022-12-14T11:12:24.362Z,5.93
2022-12-14T11:14:59.563Z,5.88
2022-12-14T11:17:34.826Z,5.63
2022-12-14T11:20:22.300Z,6.03
2022-12-14T11:22:52.664Z,5.38
2022-12-14T11:25:35.363Z,5.30
2022-12-14T11:28:18.538Z,5.18
2022-12-14T11:30:59.641Z,14.93
2022-12-14T11:33:34.858Z,4.45
2022-12-14T11:36:03.885Z,5.13
2022-12-14T11:38:33.198Z,3.10
2022-12-14T11:41:11.095Z,3.30
2022-12-14T11:43:42.011Z,2.83
2022-12-14T11:46:10.550Z,3.17
2022-12-14T11:48:49.377Z,2.63
2022-12-14T11:51:18.100Z,2.42
2022-12-14T11:54:03.087Z,2.53
2022-12-14T11:56:31.702Z,2.13
2022-12-14T11:59:01.696Z,2.88
2022-12-14T12:01:30.228Z,3.05
2022-12-14T12:04:00.759Z,2.85
2022-12-14T12:06:31.147Z,2.40
2022-12-14T12:09:01.841Z,2.13
2022-12-14T12:11:33.406Z,2.03
2022-12-14T12:14:06.949Z,1.73
2022-12-14T12:16:45.354Z,1.83
2022-12-14T12:19:20.816Z,1.73
2022-12-14T12:21:49.326Z,1.58
2022-12-14T12:24:23.264Z,1.73
2022-12-14T12:26:54.810Z,1.85
2022-12-14T12:29:30.986Z,1.40
2022-12-14T12:32:05.011Z,1.45
2022-12-14T12:34:39.852Z,1.42
2022-12-14T12:37:30.761Z,1.92
2022-12-14T12:40:04.949Z,1.55
2022-12-14T12:42:43.067Z,1.80
2022-12-14T12:45:25.291Z,2.25
2022-12-14T12:47:57.798Z,1.63
2022-12-14T12:50:31.363Z,1.92
2022-12-14T12:53:03.991Z,1.90
2022-12-14T12:55:37.248Z,2.10
2022-12-14T12:58:10.176Z,1.83
2022-12-14T13:00:42.656Z,2.40
2022-12-14T13:03:19.973Z,1.95
2022-12-14T13:05:50.435Z,2.00
2022-12-14T13:08:27.159Z,1.98
2022-12-14T13:13:52.603Z,1.58
2022-12-14T13:16:28.378Z,2.05
2022-12-14T13:19:48.813Z,1.95
2022-12-14T13:21:54.539Z,1.95
2022-12-14T13:24:25.176Z,1.70
2022-12-14T13:27:34.653Z,1.90
2022-12-14T13:30:22.210Z,2.00
2022-12-14T13:33:17.366Z,1.83
2022-12-14T13:36:06.014Z,2.17
2022-12-14T13:39:00.264Z,1.90
2022-12-14T13:41:39.108Z,2.00
2022-12-14T13:44:35.733Z,2.22
2022-12-14T13:47:13.205Z,1.80
2022-12-14T13:50:11.252Z,1.67
2022-12-14T13:52:42.830Z,1.65
2022-12-14T13:55:32.291Z,1.60
2022-12-14T13:58:18.141Z,1.55
2022-12-14T14:01:07.942Z,1.85
2022-12-14T14:03:53.773Z,1.33
2022-12-14T14:06:38.928Z,1.52
2022-12-14T14:09:43.206Z,1.48
2022-12-14T14:12:49.855Z,2.25
2022-12-14T14:15:38.179Z,2.03
2022-12-14T14:18:20.377Z,2.13
2022-12-14T14:20:56.989Z,2.45
2022-12-14T14:23:34.043Z,2.00
2022-12-14T14:26:25.417Z,1.75
2022-12-14T14:29:24.778Z,1.83
2022-12-14T14:31:56.422Z,1.63
2022-12-14T14:34:48.399Z,1.48
2022-12-14T14:37:26.294Z,2.85
2022-12-14T14:40:13.484Z,3.30
2022-12-14T14:42:54.344Z,2.00
2022-12-14T14:45:41.976Z,2.00
2022-12-14T14:48:34.621Z,1.52
2022-12-14T14:51:17.197Z,1.88
2022-12-14T14:53:46.655Z,2.22
2022-12-14T14:56:40.196Z,2.08
2022-12-14T14:59:43.404Z,2.03
2022-12-14T15:02:35.122Z,1.98
2022-12-14T15:05:33.399Z,2.28
2022-12-14T15:07:56.772Z,2.60
2022-12-14T15:10:31.990Z,2.70
2022-12-14T15:13:06.141Z,2.92
2022-12-14T15:15:40.696Z,2.50
2022-12-14T15:18:16.880Z,2.95
2022-12-14T15:20:55.987Z,6.93
2022-12-14T15:23:26.007Z,3.60
2022-12-14T15:26:00.572Z,2.80
2022-12-14T15:28:32.237Z,2.90
2022-12-14T15:31:02.980Z,3.50
2022-12-14T15:33:35.074Z,2.92
2022-12-14T15:36:05.750Z,3.13
2022-12-14T15:38:35.924Z,2.80
2022-12-14T15:41:07.530Z,2.60
2022-12-14T15:43:37.408Z,2.65
2022-12-14T15:46:15.803Z,2.97
2022-12-14T15:48:44.415Z,3.00
2022-12-14T15:51:16.475Z,3.03
2022-12-14T15:53:49.897Z,2.65
2022-12-14T15:59:01.422Z,2.90
2022-12-14T16:01:34.310Z,2.78
2022-12-14T16:04:07.075Z,2.63
2022-12-14T16:06:39.887Z,2.85
2022-12-14T16:09:14.173Z,6.72
2022-12-14T16:11:45.263Z,8.63
2022-12-14T16:14:22.764Z,2.90
2022-12-14T16:16:52.057Z,2.92
2022-12-14T16:19:28.276Z,3.28
2022-12-14T16:22:17.613Z,2.97
2022-12-14T16:25:03.869Z,3.00
2022-12-14T16:27:32.691Z,3.00
2022-12-14T16:30:25.638Z,3.28
2022-12-14T16:33:04.935Z,3.05
2022-12-14T16:35:36.834Z,2.63
2022-12-14T16:38:08.723Z,2.90
2022-12-14T16:40:39.343Z,2.60
2022-12-14T16:43:25.401Z,3.00
2022-12-14T16:46:15.933Z,2.53
2022-12-14T16:49:04.083Z,2.63
2022-12-14T16:52:05.672Z,3.35
2022-12-14T16:54:29.672Z,4.30
2022-12-14T16:57:01.539Z,2.88
2022-12-14T16:59:38.204Z,2.90
2022-12-14T17:02:26.373Z,2.60
2022-12-14T17:04:55.948Z,2.50
2022-12-14T17:07:28.051Z,2.50
2022-12-14T17:09:57.166Z,2.35
2022-12-14T17:12:27.573Z,2.63
2022-12-14T17:14:56.294Z,2.40
2022-12-14T17:17:33.488Z,2.38
2022-12-14T17:20:02.938Z,2.67
2022-12-14T17:22:34.216Z,2.47
2022-12-14T17:25:02.909Z,2.55
2022-12-14T17:27:32.046Z,2.13
2022-12-14T17:30:00.815Z,2.10
2022-12-14T17:32:31.897Z,2.60
2022-12-14T17:35:00.508Z,2.67
2022-12-14T17:37:35.686Z,2.22
2022-12-14T17:40:06.682Z,2.33
2022-12-14T17:42:35.877Z,2.45
2022-12-14T17:45:04.648Z,2.22
2022-12-14T17:47:34.916Z,2.58
2022-12-14T17:50:03.558Z,8.73
2022-12-14T17:52:33.538Z,3.10
2022-12-14T17:55:02.529Z,2.80
2022-12-14T17:57:32.225Z,2.70
2022-12-14T18:00:14.490Z,2.05
2022-12-14T18:02:46.169Z,2.83
2022-12-14T18:05:20.020Z,3.42
2022-12-14T18:07:50.148Z,2.70
2022-12-14T18:10:19.745Z,2.20
2022-12-14T18:12:48.486Z,2.33
2022-12-14T18:15:20.932Z,2.20
2022-12-14T18:17:51.792Z,2.08
2022-12-14T18:20:21.383Z,2.13
2022-12-14T18:22:50.822Z,2.35
2022-12-14T18:25:32.184Z,1.60
2022-12-14T18:28:01.682Z,1.45
2022-12-14T18:30:36.948Z,1.60
2022-12-14T18:33:14.662Z,1.48
2022-12-14T18:35:44.480Z,2.00
2022-12-14T18:38:13.531Z,1.80
2022-12-14T18:40:43.901Z,2.05
2022-12-14T18:43:20.387Z,1.95
2022-12-14T18:45:49.215Z,2.45
2022-12-14T18:48:19.081Z,2.13
2022-12-14T18:50:49.684Z,2.15
2022-12-14T18:53:20.083Z,2.45
2022-12-14T18:55:49.643Z,2.08
2022-12-14T18:58:20.278Z,2.38
2022-12-14T19:00:50.729Z,2.28
2022-12-14T19:03:21.435Z,2.70
2022-12-14T19:05:50.768Z,2.78
2022-12-14T19:08:19.540Z,2.15
2022-12-14T19:10:50.273Z,2.75
2022-12-14T19:13:25.665Z,3.67
2022-12-14T19:15:55.105Z,3.80
2022-12-14T19:18:30.716Z,2.95
2022-12-14T19:20:59.586Z,2.83
2022-12-14T19:23:28.820Z,2.90
2022-12-14T19:26:01.536Z,2.78
2022-12-14T19:28:33.390Z,2.80
2022-12-14T19:31:03.129Z,2.72
2022-12-14T19:33:34.533Z,3.28
2022-12-14T19:36:06.697Z,2.40
2022-12-14T19:38:37.919Z,3.10
2022-12-14T19:41:08.694Z,2.53
2022-12-14T19:43:37.347Z,2.72
2022-12-14T19:46:08.717Z,2.42
2022-12-14T19:48:39.111Z,2.83
2022-12-14T19:51:10.600Z,3.30
2022-12-14T19:53:40.421Z,2.88
2022-12-14T19:56:09.206Z,2.78
2022-12-14T19:58:37.822Z,2.60
2022-12-14T20:01:10.114Z,2.97
2022-12-14T20:03:40.519Z,2.63
2022-12-14T20:06:09.284Z,2.60
2022-12-14T20:08:38.556Z,2.45
2022-12-14T20:11:09.024Z,2.60
2022-12-14T20:13:37.992Z,2.58
2022-12-14T20:16:07.182Z,2.83
2022-12-14T20:18:35.964Z,2.30
2022-12-14T20:21:08.914Z,3.05
2022-12-14T20:23:38.718Z,8.50
2022-12-14T20:26:10.269Z,4.05
2022-12-14T20:28:39.568Z,2.40
2022-12-14T20:31:09.575Z,2.40
2022-12-14T20:33:39.007Z,2.15
2022-12-14T20:36:10.543Z,2.10
2022-12-14T20:38:39.844Z,2.97
2022-12-14T20:41:10.045Z,2.50
2022-12-14T20:43:40.214Z,2.20
2022-12-14T20:46:24.144Z,2.38
2022-12-14T20:48:52.666Z,2.22
2022-12-14T20:51:22.660Z,1.73
2022-12-14T20:53:51.441Z,2.22
2022-12-14T20:56:19.913Z,2.13
2022-12-14T20:58:49.382Z,2.50
2022-12-14T21:01:19.637Z,2.80
2022-12-14T21:03:49.808Z,2.50
2022-12-14T21:06:20.285Z,2.63
2022-12-14T21:09:05.291Z,2.50
2022-12-14T21:11:53.103Z,2.47
2022-12-14T21:14:23.155Z,2.45
2022-12-14T21:16:51.859Z,2.97
2022-12-14T21:19:20.819Z,3.53
2022-12-14T21:21:53.588Z,2.63
2022-12-14T21:25:00.470Z,2.70
2022-12-14T21:27:17.782Z,2.70
2022-12-14T21:29:46.983Z,2.60
2022-12-14T21:32:16.583Z,3.10
2022-12-14T21:34:45.492Z,2.65
2022-12-14T21:37:14.621Z,2.60
2022-12-14T21:39:52.234Z,2.88
2022-12-14T21:42:22.650Z,2.80
2022-12-14T21:44:52.688Z,3.08
2022-12-14T21:47:22.915Z,2.72
2022-12-14T21:49:51.461Z,2.67
2022-12-14T21:52:21.954Z,3.13
2022-12-14T21:54:52.084Z,2.75
2022-12-14T21:57:39.002Z,3.03
2022-12-14T22:00:10.546Z,3.25
2022-12-14T22:02:42.863Z,2.75
2022-12-14T22:05:11.928Z,3.10
2022-12-14T22:07:40.779Z,3.08
2022-12-14T22:10:10.991Z,2.78
2022-12-14T22:12:39.718Z,3.30
2022-12-14T22:15:09.306Z,3.33
2022-12-14T22:17:38.021Z,2.72
2022-12-14T22:20:07.366Z,2.70
2022-12-14T22:22:35.896Z,3.28
2022-12-14T22:25:04.529Z,3.40
2022-12-14T22:27:34.413Z,2.95
2022-12-14T22:30:05.444Z,2.75
2022-12-14T22:32:34.168Z,2.97
2022-12-14T22:35:03.041Z,3.05
2022-12-14T22:37:31.608Z,3.35
2022-12-14T22:40:00.154Z,3.25
2022-12-14T22:42:28.780Z,3.13
2022-12-14T22:44:58.546Z,2.90
2022-12-14T22:47:27.265Z,2.95
2022-12-14T22:49:55.797Z,3.17
2022-12-14T22:52:25.079Z,3.10
2022-12-14T22:54:54.593Z,3.10
2022-12-14T22:57:23.728Z,3.15
2022-12-14T22:59:57.499Z,3.40
2022-12-14T23:02:27.627Z,3.70
2022-12-14T23:04:56.209Z,3.22
2022-12-14T23:07:24.697Z,3.30
2022-12-14T23:10:10.841Z,3.70
2022-12-14T23:12:56.848Z,3.67
2022-12-14T23:15:43.020Z,3.60
2022-12-14T23:18:30.358Z,3.67
2022-12-14T23:21:16.588Z,3.35
2022-12-14T23:24:04.691Z,4.47
2022-12-14T23:26:51.982Z,3.88
2022-12-14T23:29:38.236Z,3.90
2022-12-14T23:32:24.293Z,3.80
2022-12-14T23:35:11.754Z,3.65
2022-12-14T23:37:57.491Z,4.22
2022-12-14T23:40:43.392Z,3.80
2022-12-14T23:43:30.386Z,3.78
2022-12-14T23:46:17.371Z,3.72
2022-12-14T23:49:03.517Z,3.60
2022-12-14T23:51:50.666Z,3.42
2022-12-14T23:54:36.499Z,3.35
2022-12-14T23:57:25.861Z,3.95
